Time;durP1;ratioP1;P1;durP2;ratioP2;P2;SDS_P1;SDS_P2;PMS_P1;PMS_P2;Temp;Humidity;BMP_temperature;BMP_pressure;BME280_temperature;BME280_humidity;BME280_pressure;Samples;Min_cycle;Max_cycle;Signal;HPM_P1;HPM_P2
2021/12/28 00:00:22;;;;;;;;;;;;;;;10.37;91.92;99172.59;5014933;28;836;-68
2021/12/28 00:02:49;;;;;;;;;;;;;;;10.25;92.29;99167.59;4997322;28;1230;-68
2021/12/28 00:05:16;;;;;;;;;;;;;;;10.20;92.64;99168.09;5014872;28;1950;-68
2021/12/28 00:07:42;;;;;;;;;;;;;;;10.13;92.97;99163.41;5014801;28;907;-68
2021/12/28 00:10:12;;;;;;;;;;;;;;;10.10;93.26;99169.00;4997084;28;1217;-68
2021/12/28 00:12:39;;;;;;;;;;;;;;;10.05;93.34;99161.16;5014715;28;832;-68
2021/12/28 00:18:05;;;;;;;;;;;;;;;9.99;93.89;99163.63;5014314;28;1413;-68
2021/12/28 00:20:36;;;;;;;;;;;;;;;9.96;94.34;99172.72;5014581;28;856;-68
2021/12/28 00:23:05;;;;;;;;;;;;;;;9.91;94.55;99179.47;4997261;28;1189;-67
2021/12/28 00:25:32;;;;;;;;;;;;;;;9.90;94.70;99183.44;5014722;28;1906;-67
2021/12/28 00:27:59;;;;;;;;;;;;;;;9.89;94.87;99176.34;5014574;28;855;-68
2021/12/28 00:30:25;;;;;;;;;;;;;;;9.91;95.09;99186.97;5014987;28;817;-67
2021/12/28 00:32:53;;;;;;;;;;;;;;;9.93;94.92;99188.13;4996911;28;1185;-68
2021/12/28 00:35:21;;;;;;;;;;;;;;;9.93;94.95;99188.13;5014437;28;943;-68
2021/12/28 00:37:47;;;;;;;;;;;;;;;9.90;94.99;99194.50;5014181;28;871;-68
2021/12/28 00:40:14;;;;;;;;;;;;;;;9.86;95.26;99195.69;5014432;28;829;-68
2021/12/28 00:42:40;;;;;;;;;;;;;;;9.78;95.35;99189.50;5014558;28;880;-68
2021/12/28 00:45:07;;;;;;;;;;;;;;;9.73;95.38;99189.94;4996688;28;1943;-68
2021/12/28 00:47:33;;;;;;;;;;;;;;;9.69;95.77;99183.69;5014126;28;888;-68
2021/12/28 00:50:00;;;;;;;;;;;;;;;9.62;95.74;99190.06;5014746;28;833;-68
2021/12/28 00:52:27;;;;;;;;;;;;;;;9.53;95.82;99193.31;5013946;28;868;-68
2021/12/28 00:54:53;;;;;;;;;;;;;;;9.50;96.39;99194.13;5014740;28;836;-69
2021/12/28 00:57:19;;;;;;;;;;;;;;;9.48;96.38;99195.75;5013838;28;828;-68
2021/12/28 00:59:45;;;;;;;;;;;;;;;9.46;96.45;99196.16;5013915;28;864;-68
2021/12/28 01:02:12;;;;;;;;;;;;;;;9.46;96.71;99192.63;5013774;28;844;-69
2021/12/28 01:04:38;;;;;;;;;;;;;;;9.48;96.56;99184.72;5013652;28;1890;-69
2021/12/28 01:07:05;;;;;;;;;;;;;;;9.49;96.77;99187.03;4996176;28;1634;-69
2021/12/28 01:09:32;;;;;;;;;;;;;;;9.48;96.96;99191.00;4996019;28;1452;-69
2021/12/28 01:11:59;;;;;;;;;;;;;;;9.49;97.17;99183.50;5013634;28;875;-69
2021/12/28 01:14:29;;;;;;;;;;;;;;;9.48;97.30;99179.97;4995956;28;1225;-69
2021/12/28 01:16:59;;;;;;;;;;;;;;;9.49;97.43;99175.22;5013468;28;886;-69
2021/12/28 01:19:25;;;;;;;;;;;;;;;9.51;97.73;99175.59;5013528;28;1305;-69
2021/12/28 01:21:52;;;;;;;;;;;;;;;9.49;97.52;99170.50;5013727;28;821;-69
2021/12/28 01:24:18;;;;;;;;;;;;;;;9.49;97.85;99176.00;5013747;28;1965;-69
2021/12/28 01:26:46;;;;;;;;;;;;;;;9.48;97.92;99179.97;5013679;28;996;-69
2021/12/28 01:29:13;;;;;;;;;;;;;;;9.46;97.99;99173.31;5014054;28;754;-69
2021/12/28 01:31:40;;;;;;;;;;;;;;;9.44;97.98;99186.72;5011931;28;1314;-69
2021/12/28 01:34:08;;;;;;;;;;;;;;;9.43;98.42;99179.63;5014237;28;820;-69
2021/12/28 01:36:34;;;;;;;;;;;;;;;9.41;98.24;99185.56;5013433;28;848;-69
2021/12/28 01:39:00;;;;;;;;;;;;;;;9.41;98.18;99185.56;4995674;28;1207;-69
2021/12/28 01:41:26;;;;;;;;;;;;;;;9.38;98.32;99189.13;4995439;28;1370;-69
2021/12/28 01:43:56;;;;;;;;;;;;;;;9.37;98.42;99184.81;4995500;28;1938;-69
2021/12/28 01:46:23;;;;;;;;;;;;;;;9.35;98.53;99176.94;4995299;28;1174;-69
2021/12/28 01:48:49;;;;;;;;;;;;;;;9.36;98.36;99180.47;5013363;28;808;-69
2021/12/28 01:51:18;;;;;;;;;;;;;;;9.35;98.71;99179.69;5013140;28;848;-69
2021/12/28 01:53:45;;;;;;;;;;;;;;;9.35;98.62;99176.16;5012907;28;832;-69
2021/12/28 01:56:14;;;;;;;;;;;;;;;9.34;98.71;99177.34;5012874;28;805;-69
2021/12/28 01:58:41;;;;;;;;;;;;;;;9.35;98.87;99176.16;5012656;28;907;-69
2021/12/28 02:01:08;;;;;;;;;;;;;;;9.35;98.65;99168.69;5012768;28;859;-69
2021/12/28 02:03:37;;;;;;;;;;;;;;;9.33;98.77;99168.31;5012578;28;1886;-69
2021/12/28 02:06:03;;;;;;;;;;;;;;;9.29;98.56;99172.28;5012655;28;1204;-69
2021/12/28 02:08:29;;;;;;;;;;;;;;;9.26;98.78;99168.38;4994415;28;1324;-69
2021/12/28 02:10:56;;;;;;;;;;;;;;;9.24;98.92;99158.94;5012360;28;813;-69
2021/12/28 02:13:24;;;;;;;;;;;;;;;9.23;98.98;99162.88;5012552;28;879;-70
2021/12/28 02:15:50;;;;;;;;;;;;;;;9.20;98.68;99159.75;5012680;28;824;-70
2021/12/28 02:18:18;;;;;;;;;;;;;;;9.21;98.66;99155.03;5012257;28;1224;-70
2021/12/28 02:20:45;;;;;;;;;;;;;;;9.19;98.79;99149.91;5012472;28;844;-69
2021/12/28 02:23:12;;;;;;;;;;;;;;;9.16;98.79;99150.72;5012265;28;886;-70
2021/12/28 02:25:39;;;;;;;;;;;;;;;9.14;98.73;99149.59;5012225;28;1910;-71
2021/12/28 02:28:07;;;;;;;;;;;;;;;9.16;98.86;99149.97;5012216;28;812;-70
2021/12/28 02:30:34;;;;;;;;;;;;;;;9.14;99.28;99147.59;4994622;28;1213;-71
2021/12/28 02:33:01;;;;;;;;;;;;;;;9.15;99.08;99143.66;5012205;28;849;-70
2021/12/28 02:35:28;;;;;;;;;;;;;;;9.13;99.34;99146.06;4994476;28;1272;-70
2021/12/28 02:37:55;;;;;;;;;;;;;;;9.11;99.49;99150.38;4994340;28;1202;-70
2021/12/28 02:40:23;;;;;;;;;;;;;;;9.07;99.26;99139.41;5012121;28;872;-70
2021/12/28 02:42:50;;;;;;;;;;;;;;;9.05;99.43;99147.31;5012107;28;821;-71
2021/12/28 02:45:21;;;;;;;;;;;;;;;9.00;99.25;99150.47;4994071;28;1890;-70
2021/12/28 02:47:48;;;;;;;;;;;;;;;8.97;99.58;99156.81;4994442;28;1588;-71
2021/12/28 02:50:18;;;;;;;;;;;;;;;8.95;99.30;99146.19;5011926;28;832;-71
2021/12/28 02:52:45;;;;;;;;;;;;;;;8.97;99.74;99145.81;5011959;28;770;-71
2021/12/28 02:55:12;;;;;;;;;;;;;;;9.05;99.77;99146.53;5012348;28;804;-71
2021/12/28 02:57:45;;;;;;;;;;;;;;;9.02;99.74;99147.31;5011848;28;849;-71
2021/12/28 03:00:12;;;;;;;;;;;;;;;8.90;99.70;99157.66;5011871;28;824;-70
2021/12/28 03:02:38;;;;;;;;;;;;;;;8.87;100.00;99154.94;4994445;28;1283;-70
2021/12/28 03:05:05;;;;;;;;;;;;;;;8.89;100.00;99152.56;5011637;28;1945;-70
2021/12/28 03:07:32;;;;;;;;;;;;;;;8.87;99.94;99150.19;5011747;28;875;-70
2021/12/28 03:09:58;;;;;;;;;;;;;;;8.75;99.50;99145.97;5011616;28;822;-70
2021/12/28 03:12:24;;;;;;;;;;;;;;;8.68;99.90;99148.78;4994385;28;1605;-70
2021/12/28 03:14:50;;;;;;;;;;;;;;;8.69;100.00;99160.59;5011453;28;828;-70
2021/12/28 03:17:16;;;;;;;;;;;;;;;8.71;100.00;99163.72;4991810;28;1295;-70
2021/12/28 03:19:43;;;;;;;;;;;;;;;8.64;99.84;99161.00;4990682;28;1221;-70
2021/12/28 03:22:10;;;;;;;;;;;;;;;8.63;100.00;99153.94;4996056;28;852;-70
2021/12/28 03:24:36;;;;;;;;;;;;;;;8.63;100.00;99156.72;4994601;28;1918;-70
2021/12/28 03:27:03;;;;;;;;;;;;;;;8.65;100.00;99154.34;4996052;28;852;-70
2021/12/28 03:29:30;;;;;;;;;;;;;;;8.65;100.00;99152.34;4996003;28;867;-70
2021/12/28 03:31:56;;;;;;;;;;;;;;;8.55;99.93;99144.94;4996017;28;888;-70
2021/12/28 03:34:23;;;;;;;;;;;;;;;8.53;100.00;99136.31;4995858;28;824;-70
2021/12/28 03:36:49;;;;;;;;;;;;;;;8.51;100.00;99138.69;4994755;28;1229;-70
2021/12/28 03:39:16;;;;;;;;;;;;;;;8.48;100.00;99136.75;4995800;28;899;-70
2021/12/28 03:41:43;;;;;;;;;;;;;;;8.50;100.00;99143.41;4995578;28;887;-70
2021/12/28 03:44:10;;;;;;;;;;;;;;;8.56;100.00;99143.78;4995528;28;1946;-70
2021/12/28 03:46:36;;;;;;;;;;;;;;;8.57;100.00;99146.09;4995552;28;920;-70
2021/12/28 03:49:03;;;;;;;;;;;;;;;8.52;100.00;99143.00;4994213;28;1219;-70
2021/12/28 03:51:30;;;;;;;;;;;;;;;8.46;100.00;99150.13;4994213;28;1238;-70
2021/12/28 03:53:57;;;;;;;;;;;;;;;8.43;100.00;99150.94;4995406;28;873;-70
2021/12/28 03:56:24;;;;;;;;;;;;;;;8.45;100.00;99152.13;4995501;28;852;-70
2021/12/28 03:58:51;;;;;;;;;;;;;;;8.43;100.00;99146.22;4995324;28;818;-70
2021/12/28 04:01:20;;;;;;;;;;;;;;;8.39;100.00;99167.47;4995361;28;837;-70
2021/12/28 04:03:48;;;;;;;;;;;;;;;8.33;100.00;99161.59;4995236;28;1985;-70
2021/12/28 04:06:18;;;;;;;;;;;;;;;8.25;100.00;99162.81;4995322;28;891;-70
2021/12/28 04:08:45;;;;;;;;;;;;;;;8.12;100.00;99165.25;4995237;28;988;-70
2021/12/28 04:11:25;;;;;;;;;;;;;;;8.12;100.00;99164.47;4995319;28;927;-70
2021/12/28 04:13:53;;;;;;;;;;;;;;;8.14;100.00;99173.88;4995044;28;900;-70
2021/12/28 04:16:21;;;;;;;;;;;;;;;8.18;100.00;99173.88;4995051;28;868;-71
2021/12/28 04:18:48;;;;;;;;;;;;;;;8.28;100.00;99173.03;4993595;28;1297;-71
2021/12/28 04:21:14;;;;;;;;;;;;;;;8.34;100.00;99179.69;4994983;28;848;-71
2021/12/28 04:23:41;;;;;;;;;;;;;;;8.28;100.00;99178.53;4993727;28;1911;-71
2021/12/28 04:26:07;;;;;;;;;;;;;;;8.26;100.00;99180.13;4995336;28;765;-71
2021/12/28 04:28:34;;;;;;;;;;;;;;;8.28;100.00;99186.00;4994909;28;832;-71
2021/12/28 04:31:00;;;;;;;;;;;;;;;8.23;100.00;99187.19;4993459;28;1427;-71
2021/12/28 04:33:27;;;;;;;;;;;;;;;8.21;100.00;99186.03;4994154;28;824;-70
2021/12/28 04:35:54;;;;;;;;;;;;;;;8.24;100.00;99185.25;4994853;28;832;-71
2021/12/28 04:38:20;;;;;;;;;;;;;;;8.26;100.00;99180.13;4994823;28;903;-71
2021/12/28 04:40:46;;;;;;;;;;;;;;;8.27;100.00;99185.22;4993218;28;1329;-71
2021/12/28 04:43:15;;;;;;;;;;;;;;;8.28;100.00;99188.75;4994718;28;887;-71
2021/12/28 04:45:41;;;;;;;;;;;;;;;8.30;100.00;99181.69;4994559;28;1886;-71
2021/12/28 04:48:08;;;;;;;;;;;;;;;8.27;100.00;99179.72;4994417;28;986;-71
2021/12/28 04:50:41;;;;;;;;;;;;;;;8.21;100.00;99175.81;4994537;28;824;-71
2021/12/28 04:53:08;;;;;;;;;;;;;;;8.28;100.00;99180.50;4994389;28;824;-70
2021/12/28 04:55:39;;;;;;;;;;;;;;;8.29;100.00;99177.34;4994353;28;877;-71
2021/12/28 04:58:06;;;;;;;;;;;;;;;8.34;100.00;99185.19;4994298;28;813;-71
2021/12/28 05:00:33;;;;;;;;;;;;;;;8.42;100.00;99185.19;4993335;28;1435;-71
2021/12/28 05:02:59;;;;;;;;;;;;;;;8.49;100.00;99188.69;4994198;28;884;-71
2021/12/28 05:05:26;;;;;;;;;;;;;;;8.49;100.00;99187.88;4994086;28;1894;-71
2021/12/28 05:07:53;;;;;;;;;;;;;;;8.48;100.00;99187.09;4994418;28;844;-71
2021/12/28 05:10:19;;;;;;;;;;;;;;;8.41;100.00;99191.84;4994066;28;909;-71
2021/12/28 05:12:46;;;;;;;;;;;;;;;8.36;100.00;99193.84;4993947;28;817;-71
2021/12/28 05:15:13;;;;;;;;;;;;;;;8.30;100.00;99198.19;4993997;28;940;-71
2021/12/28 05:17:40;;;;;;;;;;;;;;;8.21;100.00;99199.81;4993925;28;1413;-71
2021/12/28 05:20:07;;;;;;;;;;;;;;;8.16;100.00;99192.75;4993921;28;903;-71
2021/12/28 05:22:34;;;;;;;;;;;;;;;8.17;100.00;99195.13;4992529;28;1255;-71
2021/12/28 05:25:01;;;;;;;;;;;;;;;8.15;100.00;99202.19;4993760;28;1981;-70
2021/12/28 05:27:27;;;;;;;;;;;;;;;8.14;100.00;99204.16;4992462;28;1400;-70
2021/12/28 05:29:54;;;;;;;;;;;;;;;8.13;100.00;99207.34;4993917;28;887;-70
2021/12/28 05:32:20;;;;;;;;;;;;;;;8.11;100.00;99204.97;4993661;28;866;-70
2021/12/28 05:34:47;;;;;;;;;;;;;;;8.14;100.00;99206.91;4993676;28;907;-70
2021/12/28 05:37:12;;;;;;;;;;;;;;;8.16;100.00;99221.06;4993665;28;820;-70
2021/12/28 05:39:39;;;;;;;;;;;;;;;8.17;100.00;99219.91;4993541;28;897;-70
2021/12/28 05:42:06;;;;;;;;;;;;;;;8.14;100.00;99219.91;4992156;28;1166;-70
2021/12/28 05:44:32;;;;;;;;;;;;;;;8.25;100.00;99219.84;4991147;28;1918;-69
2021/12/28 05:46:59;;;;;;;;;;;;;;;8.24;100.00;99215.53;4993620;28;870;-69
2021/12/28 05:49:25;;;;;;;;;;;;;;;8.25;100.00;99215.13;4992104;28;1190;-69
2021/12/28 05:51:52;;;;;;;;;;;;;;;8.22;100.00;99217.91;4993278;28;880;-69
2021/12/28 05:54:19;;;;;;;;;;;;;;;8.17;99.78;99219.09;4993388;28;820;-69
2021/12/28 05:56:45;;;;;;;;;;;;;;;8.10;99.79;99221.88;4993267;28;892;-70
2021/12/28 05:59:12;;;;;;;;;;;;;;;8.14;99.93;99228.94;4991759;28;1147;-70
2021/12/28 06:01:39;;;;;;;;;;;;;;;8.19;99.76;99236.00;4993150;28;840;-70
2021/12/28 06:04:07;;;;;;;;;;;;;;;8.16;99.56;99231.28;4993072;28;1894;-70
2021/12/28 06:06:33;;;;;;;;;;;;;;;8.18;99.77;99239.94;4993015;28;860;-70
2021/12/28 06:09:00;;;;;;;;;;;;;;;8.21;99.90;99244.63;4993009;28;828;-70
2021/12/28 06:11:27;;;;;;;;;;;;;;;7.98;98.80;99251.41;4992813;28;856;-70
2021/12/28 06:13:55;;;;;;;;;;;;;;;7.62;98.41;99250.72;4992958;28;820;-70
2021/12/28 06:16:22;;;;;;;;;;;;;;;7.44;98.84;99249.97;4993121;28;888;-71
2021/12/28 06:18:47;;;;;;;;;;;;;;;7.42;99.43;99239.34;4992599;28;1194;-71
2021/12/28 06:21:14;;;;;;;;;;;;;;;7.34;98.31;99249.59;4992755;28;875;-71
2021/12/28 06:23:40;;;;;;;;;;;;;;;7.21;98.58;99245.66;4992671;28;1914;-71
2021/12/28 06:26:07;;;;;;;;;;;;;;;7.07;97.22;99240.94;4992716;28;875;-71
2021/12/28 06:28:34;;;;;;;;;;;;;;;7.01;98.58;99249.97;4992684;28;932;-71
2021/12/28 06:31:01;;;;;;;;;;;;;;;7.03;98.22;99262.13;4992955;28;813;-72
2021/12/28 06:33:28;;;;;;;;;;;;;;;6.96;97.59;99251.16;4991436;28;1233;-72
2021/12/28 06:35:54;;;;;;;;;;;;;;;6.90;97.02;99258.22;4992644;28;876;-71
2021/12/28 06:38:21;;;;;;;;;;;;;;;6.81;97.22;99255.06;4992477;28;828;-71
2021/12/28 06:40:47;;;;;;;;;;;;;;;6.81;97.55;99268.81;4992262;28;881;-71
2021/12/28 06:43:14;;;;;;;;;;;;;;;6.93;97.97;99260.16;4992757;28;809;-71
2021/12/28 06:45:41;;;;;;;;;;;;;;;6.95;96.96;99269.56;4990975;28;1886;-71
2021/12/28 06:48:07;;;;;;;;;;;;;;;7.05;96.82;99265.28;4992446;28;868;-71
2021/12/28 06:50:34;;;;;;;;;;;;;;;7.25;96.90;99273.91;4992716;28;940;-71
2021/12/28 06:53:00;;;;;;;;;;;;;;;7.35;96.36;99270.38;4992316;28;833;-71
2021/12/28 06:55:27;;;;;;;;;;;;;;;7.44;95.48;99266.47;4990902;28;1068;-70
2021/12/28 06:57:53;;;;;;;;;;;;;;;7.49;94.68;99275.09;4992237;28;889;-71
2021/12/28 07:00:19;;;;;;;;;;;;;;;7.59;94.34;99269.97;4992373;28;932;-71
2021/12/28 07:02:46;;;;;;;;;;;;;;;7.68;94.03;99271.16;4991041;28;1332;-71
2021/12/28 07:05:13;;;;;;;;;;;;;;;7.81;93.99;99268.78;4992300;28;1918;-70
2021/12/28 07:07:40;;;;;;;;;;;;;;;7.98;93.62;99275.41;4991037;28;1437;-70
2021/12/28 07:10:07;;;;;;;;;;;;;;;8.13;93.16;99276.16;4992164;28;896;-70
2021/12/28 07:12:34;;;;;;;;;;;;;;;8.27;92.90;99272.53;4992363;28;880;-71
2021/12/28 07:15:01;;;;;;;;;;;;;;;8.44;92.33;99270.94;4992356;28;872;-71
2021/12/28 07:17:29;;;;;;;;;;;;;;;8.66;92.00;99268.84;4991716;28;1337;-70
2021/12/28 07:32:32;;;;;;;;;;;;;;;9.93;91.34;99304.06;4992408;28;619;-71
2021/12/28 07:34:58;;;;;;;;;;;;;;;10.15;90.85;99295.56;4992112;28;911;-71
2021/12/28 07:37:25;;;;;;;;;;;;;;;10.37;91.25;99294.16;4992086;28;895;-71
2021/12/28 07:39:53;;;;;;;;;;;;;;;10.89;90.54;99293.06;4992287;28;781;-71
2021/12/28 07:42:18;;;;;;;;;;;;;;;10.93;89.46;99293.03;4990703;28;1185;-71
2021/12/28 07:44:45;;;;;;;;;;;;;;;10.92;89.69;99285.91;4990867;28;1895;-71
2021/12/28 07:47:12;;;;;;;;;;;;;;;10.85;89.82;99292.34;4991886;28;923;-71
2021/12/28 07:49:38;;;;;;;;;;;;;;;10.80;90.44;99290.81;4991801;28;825;-71
2021/12/28 07:52:05;;;;;;;;;;;;;;;10.90;90.68;99291.84;4991651;28;836;-71
2021/12/28 07:54:31;;;;;;;;;;;;;;;11.26;90.58;99294.09;4991719;28;875;-71
2021/12/28 07:56:58;;;;;;;;;;;;;;;11.62;89.50;99287.97;4991835;28;860;-71
2021/12/28 07:59:24;;;;;;;;;;;;;;;11.45;88.80;99281.53;4991605;28;829;-71
2021/12/28 08:01:51;;;;;;;;;;;;;;;11.39;91.26;99274.91;4991682;28;832;-71
2021/12/28 08:04:17;;;;;;;;;;;;;;;11.80;90.68;99279.38;4991545;28;1960;-71
2021/12/28 08:06:44;;;;;;;;;;;;;;;11.97;89.41;99275.50;4991591;28;809;-71
2021/12/28 08:09:10;;;;;;;;;;;;;;;11.86;89.60;99280.41;4995155;28;947;-71
2021/12/28 08:11:37;;;;;;;;;;;;;;;11.74;89.83;99275.50;4993797;28;1143;-71
2021/12/28 08:14:04;;;;;;;;;;;;;;;11.36;90.21;99279.31;4995250;28;829;-71
2021/12/28 08:16:31;;;;;;;;;;;;;;;10.98;90.87;99285.03;4993648;28;1182;-71
2021/12/28 08:18:57;;;;;;;;;;;;;;;10.57;91.46;99288.75;4993496;28;1427;-71
2021/12/28 08:21:26;;;;;;;;;;;;;;;10.31;92.91;99289.50;4995066;28;994;-71
2021/12/28 08:23:51;;;;;;;;;;;;;;;10.14;93.25;99292.03;4994955;28;1921;-71
2021/12/28 08:26:18;;;;;;;;;;;;;;;10.09;93.94;99288.91;4995202;28;774;-70
2021/12/28 08:28:44;;;;;;;;;;;;;;;10.36;94.98;99295.34;4995175;28;868;-70
2021/12/28 08:31:11;;;;;;;;;;;;;;;10.92;92.98;99291.44;4994902;28;785;-70
2021/12/28 08:33:38;;;;;;;;;;;;;;;11.15;91.57;99287.94;4996696;28;829;-71
2021/12/28 08:36:05;;;;;;;;;;;;;;;11.22;91.22;99290.59;4996840;28;1394;-71
2021/12/28 08:38:31;;;;;;;;;;;;;;;11.39;90.52;99289.56;5014193;28;852;-71
2021/12/28 08:40:59;;;;;;;;;;;;;;;11.50;89.36;99283.84;5014600;28;911;-71
2021/12/28 08:43:26;;;;;;;;;;;;;;;11.45;89.43;99284.28;5014389;28;833;-71
2021/12/28 08:45:53;;;;;;;;;;;;;;;11.43;89.20;99283.94;5014174;28;1871;-71
2021/12/28 08:48:19;;;;;;;;;;;;;;;11.53;89.09;99288.50;5014114;28;852;-71
2021/12/28 08:50:46;;;;;;;;;;;;;;;11.40;88.01;99285.56;5014011;28;836;-71
2021/12/28 08:53:12;;;;;;;;;;;;;;;11.20;88.33;99277.19;5014309;28;916;-71
2021/12/28 08:55:39;;;;;;;;;;;;;;;11.11;88.84;99273.38;5013983;28;861;-71
2021/12/28 08:58:06;;;;;;;;;;;;;;;10.98;89.00;99275.94;4996330;28;1219;-71
2021/12/28 09:00:33;;;;;;;;;;;;;;;10.97;88.72;99280.72;4996331;28;1484;-71
2021/12/28 09:03:00;;;;;;;;;;;;;;;11.14;89.08;99275.34;4996285;28;1456;-70
2021/12/28 09:05:26;;;;;;;;;;;;;;;11.27;89.08;99273.53;4996067;28;1882;-70
2021/12/28 09:07:53;;;;;;;;;;;;;;;11.28;88.28;99260.47;5013990;28;856;-70
2021/12/28 09:10:20;;;;;;;;;;;;;;;11.33;87.92;99260.78;5013710;28;825;-70
2021/12/28 09:12:48;;;;;;;;;;;;;;;11.63;88.54;99259.88;5013665;28;828;-70
2021/12/28 09:15:14;;;;;;;;;;;;;;;11.89;87.44;99248.38;5013595;28;863;-71
2021/12/28 09:17:41;;;;;;;;;;;;;;;12.12;86.92;99247.50;5008585;28;1135;-71
2021/12/28 09:20:10;;;;;;;;;;;;;;;12.23;86.52;99248.09;4993933;28;824;-71
2021/12/28 09:22:37;;;;;;;;;;;;;;;12.07;85.60;99259.09;4993958;28;868;-71
2021/12/28 09:25:04;;;;;;;;;;;;;;;11.95;86.18;99257.72;4993761;28;1914;-71
2021/12/28 09:27:30;;;;;;;;;;;;;;;11.87;86.31;99261.84;4993943;28;895;-71
2021/12/28 09:29:57;;;;;;;;;;;;;;;11.73;86.50;99262.84;4995588;28;1409;-71
2021/12/28 09:32:23;;;;;;;;;;;;;;;11.62;86.91;99252.75;5013353;28;883;-71
2021/12/28 09:34:52;;;;;;;;;;;;;;;11.47;86.76;99253.44;5013246;28;864;-71
2021/12/28 09:37:22;;;;;;;;;;;;;;;11.21;87.93;99261.38;4995576;28;1299;-70
2021/12/28 09:39:49;;;;;;;;;;;;;;;10.93;88.24;99259.84;5013103;28;891;-70
2021/12/28 09:42:15;;;;;;;;;;;;;;;10.69;89.06;99259.00;5013084;28;825;-70
2021/12/28 09:44:42;;;;;;;;;;;;;;;10.45;90.26;99258.13;5013029;28;1886;-70
2021/12/28 09:47:08;;;;;;;;;;;;;;;10.23;91.17;99263.91;5012976;28;876;-70
2021/12/28 09:49:35;;;;;;;;;;;;;;;10.08;91.85;99265.28;5013075;28;836;-70
2021/12/28 09:52:03;;;;;;;;;;;;;;;9.97;92.29;99266.19;5013188;28;789;-70
2021/12/28 09:54:30;;;;;;;;;;;;;;;9.91;92.71;99264.28;5012863;28;872;-70
2021/12/28 09:56:59;;;;;;;;;;;;;;;9.89;92.91;99258.38;5012785;28;853;-70
2021/12/28 09:59:27;;;;;;;;;;;;;;;9.95;92.89;99254.75;5012773;28;860;-70
2021/12/28 10:01:53;;;;;;;;;;;;;;;9.96;92.78;99250.00;5012809;28;825;-70
2021/12/28 10:04:20;;;;;;;;;;;;;;;10.01;92.97;99253.13;5012616;28;1894;-70
2021/12/28 10:06:47;;;;;;;;;;;;;;;10.09;92.96;99259.34;5012680;28;820;-70
2021/12/28 10:09:16;;;;;;;;;;;;;;;10.11;93.25;99254.16;5012567;28;821;-70
2021/12/28 10:24:30;;;;;;;;;;;;;;;10.17;92.24;99238.72;4991853;28;1906;-70
2021/12/28 10:27:12;;;;;;;;;;;;;;;10.17;92.47;99240.69;4994702;28;1469;-70
2021/12/28 10:29:38;;;;;;;;;;;;;;;10.05;92.28;99244.78;5011909;28;889;-70
2021/12/28 10:32:34;;;;;;;;;;;;;;;9.91;91.66;99240.22;5012337;28;848;-72
2021/12/28 10:35:09;;;;;;;;;;;;;;;9.81;92.30;99239.16;4978577;28;1360;-72
2021/12/28 10:37:38;;;;;;;;;;;;;;;9.78;92.75;99242.72;5011972;28;840;-72
2021/12/28 10:40:09;;;;;;;;;;;;;;;9.73;92.82;99242.38;5012178;28;809;-72
2021/12/28 10:42:36;;;;;;;;;;;;;;;9.58;92.75;99241.72;5012081;28;895;-72
2021/12/28 10:48:31;;;;;;;;;;;;;;;9.28;93.07;99247.91;5012016;28;615;-72
2021/12/28 10:51:04;;;;;;;;;;;;;;;9.04;93.02;99241.44;5012651;28;797;-72
2021/12/28 10:53:38;;;;;;;;;;;;;;;8.94;93.68;99243.06;5011837;28;876;-72
2021/12/28 10:56:06;;;;;;;;;;;;;;;8.84;94.12;99241.19;5011923;28;821;-71
2021/12/28 10:58:44;;;;;;;;;;;;;;;8.80;94.57;99246.72;4994244;28;1181;-71
2021/12/28 11:01:16;;;;;;;;;;;;;;;8.83;94.30;99250.63;5011832;28;833;-71
2021/12/28 11:03:45;;;;;;;;;;;;;;;8.90;94.64;99243.09;5011848;28;816;-71
2021/12/28 11:06:15;;;;;;;;;;;;;;;9.07;94.46;99249.69;5011572;28;1889;-71
2021/12/28 11:08:43;;;;;;;;;;;;;;;9.10;93.97;99245.31;4994425;28;1439;-71
2021/12/28 11:11:11;;;;;;;;;;;;;;;9.03;93.52;99253.66;5011729;28;860;-71
2021/12/28 11:13:38;;;;;;;;;;;;;;;8.98;93.73;99249.34;4994084;28;1428;-71
2021/12/28 11:16:07;;;;;;;;;;;;;;;8.94;93.73;99243.88;4994178;28;1445;-71
2021/12/28 11:18:36;;;;;;;;;;;;;;;9.00;93.84;99249.72;5012049;28;901;-71
2021/12/28 11:21:20;;;;;;;;;;;;;;;8.95;93.94;99242.66;5011777;28;911;-71
2021/12/28 11:23:49;;;;;;;;;;;;;;;8.96;93.69;99248.97;5011070;28;1478;-71
2021/12/28 11:26:21;;;;;;;;;;;;;;;8.96;93.75;99247.00;5011573;28;829;-71
2021/12/28 11:29:02;;;;;;;;;;;;;;;8.93;93.77;99247.03;5011592;28;820;-71
2021/12/28 11:31:39;;;;;;;;;;;;;;;8.82;93.10;99251.84;5011449;28;860;-71
2021/12/28 11:34:08;;;;;;;;;;;;;;;8.79;93.39;99234.91;5011524;28;880;-71
2021/12/28 11:36:38;;;;;;;;;;;;;;;8.75;92.99;99233.38;4993759;28;1056;-71
2021/12/28 11:39:09;;;;;;;;;;;;;;;8.72;92.82;99245.97;4993819;28;1099;-71
2021/12/28 11:41:35;;;;;;;;;;;;;;;8.55;92.86;99235.84;4995222;28;1233;-71
2021/12/28 11:44:02;;;;;;;;;;;;;;;8.43;92.91;99236.28;5015517;28;1973;-72
2021/12/28 11:46:29;;;;;;;;;;;;;;;8.37;92.81;99233.16;5015290;28;892;-71
2021/12/28 11:48:57;;;;;;;;;;;;;;;8.35;92.49;99232.78;5015202;28;800;-71
2021/12/28 11:51:24;;;;;;;;;;;;;;;8.42;93.13;99237.50;5015412;28;734;-71
2021/12/28 11:53:53;;;;;;;;;;;;;;;8.48;93.00;99231.16;4997456;28;1169;-71
2021/12/28 11:56:21;;;;;;;;;;;;;;;8.59;92.96;99234.63;5015387;28;816;-71
2021/12/28 11:58:53;;;;;;;;;;;;;;;8.71;92.50;99224.34;5015072;28;872;-71
2021/12/28 12:01:39;;;;;;;;;;;;;;;8.78;92.55;99227.03;4997524;28;1184;-71
2021/12/28 12:04:26;;;;;;;;;;;;;;;8.76;92.18;99227.44;5015155;28;1941;-71
2021/12/28 12:07:01;;;;;;;;;;;;;;;8.76;92.38;99238.47;4983985;28;1253;-72
2021/12/28 12:09:28;;;;;;;;;;;;;;;8.69;92.08;99230.25;4997292;28;1442;-71
2021/12/28 12:12:18;;;;;;;;;;;;;;;8.63;92.15;99226.34;4997118;28;1287;-72
2021/12/28 12:15:09;;;;;;;;;;;;;;;8.67;92.22;99242.88;5014768;28;915;-71
2021/12/28 12:17:38;;;;;;;;;;;;;;;8.74;92.13;99243.59;4987497;28;1222;-72
2021/12/28 12:20:10;;;;;;;;;;;;;;;8.69;91.90;99243.25;5015005;28;817;-71
2021/12/28 12:22:38;;;;;;;;;;;;;;;8.68;91.95;99245.19;5014797;28;792;-72
2021/12/28 12:25:05;;;;;;;;;;;;;;;8.59;91.78;99236.59;4996719;28;1902;-71
2021/12/28 12:27:50;;;;;;;;;;;;;;;8.53;92.23;99247.25;5014521;28;907;-71
2021/12/28 12:30:24;;;;;;;;;;;;;;;8.48;91.77;99244.94;5014436;28;852;-71
2021/12/28 12:33:14;;;;;;;;;;;;;;;8.40;91.75;99251.63;5014499;28;813;-71
2021/12/28 12:35:58;;;;;;;;;;;;;;;8.36;92.59;99245.34;4997037;28;1218;-71
2021/12/28 12:38:25;;;;;;;;;;;;;;;8.28;92.01;99250.13;5014959;28;868;-72
2021/12/28 12:40:59;;;;;;;;;;;;;;;8.17;91.60;99252.94;4997046;28;1315;-72
2021/12/28 12:43:40;;;;;;;;;;;;;;;8.13;92.16;99257.66;5014299;28;888;-72
2021/12/28 12:46:11;;;;;;;;;;;;;;;8.11;92.30;99257.28;4996610;28;1883;-71
2021/12/28 12:48:39;;;;;;;;;;;;;;;8.10;92.84;99268.66;5014179;28;903;-71
2021/12/28 12:51:27;;;;;;;;;;;;;;;8.09;92.54;99278.13;5014103;28;883;-72
2021/12/28 12:54:02;;;;;;;;;;;;;;;8.04;92.86;99278.53;4995874;28;1241;-71
2021/12/28 12:56:31;;;;;;;;;;;;;;;8.03;92.89;99279.72;5014083;28;883;-71
2021/12/28 12:59:00;;;;;;;;;;;;;;;7.98;93.11;99281.69;5013951;28;821;-71
2021/12/28 13:01:27;;;;;;;;;;;;;;;7.92;93.29;99280.53;5013868;28;864;-71
2021/12/28 13:03:58;;;;;;;;;;;;;;;7.89;93.23;99291.53;5013946;28;883;-71
2021/12/28 13:06:36;;;;;;;;;;;;;;;7.85;92.97;99293.50;5014084;28;848;-71
2021/12/28 13:09:05;;;;;;;;;;;;;;;7.77;92.60;99298.25;5013683;28;871;-71
2021/12/28 13:11:32;;;;;;;;;;;;;;;7.72;93.01;99291.19;5013780;28;829;-71
2021/12/28 13:13:59;;;;;;;;;;;;;;;7.69;93.41;99293.94;4996092;28;1408;-71
2021/12/28 13:16:27;;;;;;;;;;;;;;;7.65;93.71;99290.41;5013626;28;832;-71
2021/12/28 13:19:13;;;;;;;;;;;;;;;7.67;93.74;99293.53;4996133;28;1260;-71
2021/12/28 13:21:53;;;;;;;;;;;;;;;7.69;93.50;99293.94;5013441;28;852;-71
2021/12/28 13:24:20;;;;;;;;;;;;;;;7.65;93.09;99291.19;5002902;28;1898;-71
2021/12/28 13:26:48;;;;;;;;;;;;;;;7.63;92.80;99290.00;4992475;28;1480;-71
2021/12/28 13:29:28;;;;;;;;;;;;;;;7.59;93.36;99284.50;4993877;28;884;-71
2021/12/28 13:32:12;;;;;;;;;;;;;;;7.58;93.48;99288.44;4992381;28;1216;-71
2021/12/28 13:34:57;;;;;;;;;;;;;;;7.59;93.48;99290.00;4993895;28;821;-71
2021/12/28 13:37:49;;;;;;;;;;;;;;;7.60;92.83;99290.81;4993733;28;845;-71
2021/12/28 13:40:23;;;;;;;;;;;;;;;7.62;93.88;99293.94;4990226;28;1066;-71
2021/12/28 13:42:50;;;;;;;;;;;;;;;7.62;92.92;99288.44;4993872;28;911;-72
2021/12/28 13:45:28;;;;;;;;;;;;;;;7.63;93.23;99292.75;4993606;28;1883;-71
2021/12/28 13:47:56;;;;;;;;;;;;;;;7.63;93.24;99285.28;4993414;28;833;-71